createdAt,value
2019-02-11T00:01:50.293Z,0.30
2019-02-11T00:06:57.901Z,0.20
2019-02-11T00:12:02.737Z,0.37
2019-02-11T00:17:07.440Z,0.40
2019-02-11T00:22:12.372Z,0.33
2019-02-11T00:27:20.742Z,0.20
2019-02-11T00:32:25.734Z,0.63
2019-02-11T00:37:31.671Z,0.40
2019-02-11T00:42:38.303Z,0.30
2019-02-11T00:47:43.473Z,0.20
2019-02-11T00:52:49.096Z,1.60
2019-02-11T00:57:54.118Z,0.37
2019-02-11T01:02:58.872Z,0.60
2019-02-11T01:08:03.605Z,0.10
2019-02-11T01:13:09.678Z,0.40
2019-02-11T01:18:14.739Z,0.33
2019-02-11T01:23:19.699Z,0.10
2019-02-11T01:28:24.660Z,0.10
2019-02-11T01:33:29.752Z,0.20
2019-02-11T01:38:35.123Z,0.10
2019-02-11T01:43:40.836Z,0.20
2019-02-11T01:48:46.208Z,0.23
2019-02-11T01:53:51.180Z,0.10
2019-02-11T01:58:55.912Z,0.20
2019-02-11T02:04:02.096Z,0.20
2019-02-11T02:09:07.396Z,0.77
2019-02-11T02:14:12.252Z,0.20
2019-02-11T02:19:17.315Z,0.20
2019-02-11T02:24:23.054Z,0.20
2019-02-11T02:29:27.832Z,0.27
2019-02-11T02:34:33.036Z,0.30
2019-02-11T02:39:38.722Z,0.37
2019-02-11T02:44:44.857Z,1.60
2019-02-11T02:49:51.086Z,0.40
2019-02-11T02:54:58.885Z,0.30
2019-02-11T03:00:04.233Z,0.40
2019-02-11T03:05:09.445Z,0.40
2019-02-11T03:10:14.505Z,0.30
2019-02-11T03:15:19.304Z,0.30
2019-02-11T03:20:26.133Z,0.43
2019-02-11T03:25:30.831Z,0.40
2019-02-11T03:30:36.634Z,0.43
2019-02-11T03:35:41.389Z,0.40
2019-02-11T03:40:46.112Z,0.40
2019-02-11T03:45:52.477Z,0.60
2019-02-11T03:50:57.848Z,0.70
2019-02-11T03:56:02.755Z,0.50
2019-02-11T04:01:09.004Z,0.67
2019-02-11T04:06:15.304Z,0.60
2019-02-11T04:11:20.087Z,0.80
2019-02-11T04:16:24.879Z,0.70
2019-02-11T04:21:31.388Z,0.40
2019-02-11T04:26:36.425Z,0.50
2019-02-11T04:31:42.115Z,0.80
2019-02-11T04:36:46.913Z,0.90
2019-02-11T04:41:51.649Z,1.90
2019-02-11T04:46:57.652Z,1.17
2019-02-11T04:52:02.699Z,1.00
2019-02-11T04:57:07.670Z,1.20
2019-02-11T05:02:12.984Z,1.50
2019-02-11T05:07:18.005Z,1.50
2019-02-11T05:12:22.701Z,1.73
2019-02-11T05:17:28.700Z,2.17
2019-02-11T05:22:33.441Z,1.57
2019-02-11T05:27:38.245Z,2.13
2019-02-11T05:32:44.963Z,1.60
2019-02-11T05:37:49.982Z,1.50
2019-02-11T05:42:55.355Z,1.47
2019-02-11T05:48:01.350Z,1.60
2019-02-11T05:53:08.547Z,1.83
2019-02-11T05:58:13.305Z,2.43
2019-02-11T06:03:19.302Z,1.73
2019-02-11T06:08:24.101Z,1.50
2019-02-11T06:13:28.912Z,1.67
2019-02-11T06:18:34.140Z,1.90
2019-02-11T06:23:39.596Z,2.03
2019-02-11T06:28:54.417Z,2.60
2019-02-11T06:33:59.233Z,2.40
2019-02-11T06:39:05.165Z,5.07
2019-02-11T06:44:10.333Z,6.03
2019-02-11T06:49:15.928Z,7.03
2019-02-11T06:54:21.688Z,3.87
2019-02-11T06:59:27.736Z,1.93
2019-02-11T07:04:34.359Z,1.73
2019-02-11T07:09:39.069Z,1.80
2019-02-11T07:14:43.805Z,2.13
2019-02-11T07:19:50.145Z,3.17
2019-02-11T07:24:55.104Z,3.13
2019-02-11T07:29:59.900Z,4.83
2019-02-11T07:35:05.364Z,3.90
2019-02-11T07:40:10.287Z,5.97
2019-02-11T07:45:37.024Z,3.10
2019-02-11T07:50:45.345Z,3.70
2019-02-11T07:55:50.288Z,3.57
2019-02-11T08:00:55.025Z,4.17
2019-02-11T08:06:00.815Z,5.73
2019-02-11T08:11:06.809Z,5.97
2019-02-11T08:16:13.283Z,3.37
2019-02-11T08:21:18.008Z,5.70
2019-02-11T08:26:22.907Z,3.33
2019-02-11T08:31:27.640Z,4.63
2019-02-11T08:36:32.448Z,4.60
2019-02-11T08:41:37.725Z,3.33
2019-02-11T08:46:42.782Z,4.80
2019-02-11T08:51:47.810Z,2.53
2019-02-11T08:56:52.513Z,5.13
2019-02-11T09:01:57.604Z,8.83
2019-02-11T09:07:02.663Z,3.73
2019-02-11T09:12:07.837Z,2.67
2019-02-11T09:17:12.603Z,5.57
2019-02-11T09:22:18.316Z,6.03
2019-02-11T09:27:23.096Z,4.27
2019-02-11T09:32:27.869Z,4.23
2019-02-11T09:37:32.950Z,6.33
2019-02-11T09:42:39.314Z,3.90
2019-02-11T09:47:45.414Z,3.03
2019-02-11T09:52:50.784Z,3.70
2019-02-11T09:57:57.721Z,4.20
2019-02-11T10:03:02.610Z,3.20
2019-02-11T10:08:07.444Z,5.80
2019-02-11T10:13:14.133Z,3.70
2019-02-11T10:18:20.377Z,4.50
2019-02-11T10:23:28.244Z,4.23
2019-02-11T10:28:33.078Z,6.97
2019-02-11T10:33:39.281Z,4.37
2019-02-11T10:38:44.268Z,6.30
2019-02-11T10:43:48.980Z,4.37
2019-02-11T10:48:54.780Z,4.67
2019-02-11T10:53:59.722Z,3.47
2019-02-11T10:59:05.328Z,4.00
2019-02-11T11:04:12.480Z,4.77
2019-02-11T11:09:17.519Z,2.33
2019-02-11T11:14:22.344Z,5.40
2019-02-11T11:19:28.965Z,6.60
2019-02-11T11:24:36.819Z,3.27
2019-02-11T11:29:41.838Z,2.27
2019-02-11T11:34:47.218Z,5.87
2019-02-11T11:39:52.321Z,4.60
2019-02-11T11:44:57.309Z,4.00
2019-02-11T11:50:02.572Z,3.27
2019-02-11T11:55:11.305Z,6.30
2019-02-11T12:00:24.840Z,3.17
2019-02-11T12:05:30.063Z,5.30
2019-02-11T12:10:35.139Z,4.47
2019-02-11T12:15:40.294Z,3.27
2019-02-11T12:20:46.314Z,4.10
2019-02-11T12:25:52.706Z,3.70
2019-02-11T12:31:02.650Z,1.80
2019-02-11T12:36:05.525Z,4.60
2019-02-11T12:41:12.225Z,4.07
2019-02-11T12:46:16.991Z,2.50
2019-02-11T12:51:22.759Z,2.07
2019-02-11T12:56:27.682Z,5.20
2019-02-11T13:01:34.156Z,5.73
2019-02-11T13:06:39.061Z,4.90
2019-02-11T13:11:43.838Z,5.57
2019-02-11T13:16:48.806Z,3.13
2019-02-11T13:21:54.794Z,4.70
2019-02-11T13:26:59.509Z,6.03
2019-02-11T13:32:04.363Z,3.73
2019-02-11T13:37:09.308Z,4.30
2019-02-11T13:42:14.083Z,3.20
2019-02-11T13:47:20.227Z,4.43
2019-02-11T13:52:25.583Z,4.47
2019-02-11T13:57:30.376Z,3.60
2019-02-11T14:02:37.245Z,2.53
2019-02-11T14:07:44.158Z,4.03
2019-02-11T14:12:49.536Z,5.50
2019-02-11T14:18:10.358Z,2.60
2019-02-11T14:23:00.828Z,3.63
2019-02-11T14:28:05.949Z,3.13
2019-02-11T14:33:12.797Z,2.23
2019-02-11T14:38:18.960Z,2.60
2019-02-11T14:43:25.062Z,2.90
2019-02-11T14:48:32.750Z,3.00
2019-02-11T14:53:37.576Z,2.97
2019-02-11T14:58:42.475Z,3.23
2019-02-11T15:03:47.919Z,4.20
2019-02-11T15:08:52.894Z,3.87
2019-02-11T15:13:58.758Z,2.40
2019-02-11T15:19:04.099Z,1.60
2019-02-11T15:24:09.329Z,2.27
2019-02-11T15:29:14.354Z,4.07
2019-02-11T15:34:19.330Z,2.50
2019-02-11T15:39:25.238Z,3.97
2019-02-11T15:44:30.265Z,2.80
2019-02-11T15:49:35.044Z,2.83
2019-02-11T15:54:40.140Z,2.37
2019-02-11T15:59:45.462Z,3.93
2019-02-11T16:04:51.509Z,2.67
2019-02-11T16:09:56.322Z,1.83
2019-02-11T16:15:01.125Z,4.63
2019-02-11T16:20:06.324Z,3.13
2019-02-11T16:25:13.873Z,3.77
2019-02-11T16:31:27.615Z,3.90
2019-02-11T16:35:33.003Z,2.47
2019-02-11T16:40:38.003Z,2.00
2019-02-11T16:45:42.754Z,3.43
2019-02-11T16:50:47.579Z,2.63
2019-02-11T16:55:54.549Z,1.43
2019-02-11T17:01:01.801Z,6.20
2019-02-11T17:06:09.385Z,1.80
2019-02-11T17:11:14.287Z,2.73
2019-02-11T17:16:19.334Z,2.23
2019-02-11T17:21:24.456Z,4.77
2019-02-11T17:26:29.461Z,3.20
2019-02-11T17:31:34.600Z,2.10
2019-02-11T17:36:39.840Z,3.30
2019-02-11T17:41:44.740Z,3.40
2019-02-11T17:46:49.735Z,5.10
2019-02-11T17:51:58.015Z,3.77
2019-02-11T17:57:02.990Z,3.13
2019-02-11T18:02:13.467Z,3.87
2019-02-11T18:07:18.560Z,2.80
2019-02-11T18:12:23.646Z,3.53
2019-02-11T18:17:28.737Z,2.77
2019-02-11T18:22:34.319Z,2.00
2019-02-11T18:27:39.464Z,4.00
2019-02-11T18:32:44.724Z,2.23
2019-02-11T18:37:50.005Z,2.60
2019-02-11T18:42:55.173Z,2.67
2019-02-11T18:48:00.071Z,3.57
2019-02-11T18:53:05.170Z,3.63
2019-02-11T18:58:10.000Z,4.17
2019-02-11T19:03:20.789Z,3.17
2019-02-11T19:08:29.311Z,2.63
2019-02-11T19:13:34.615Z,5.37
2019-02-11T19:18:39.470Z,4.13
2019-02-11T19:23:44.452Z,3.03
2019-02-11T19:28:53.493Z,3.83
2019-02-11T19:33:58.556Z,5.67
2019-02-11T19:39:11.974Z,3.17
2019-02-11T19:44:18.176Z,5.93
2019-02-11T19:49:25.955Z,3.43
2019-02-11T19:54:30.941Z,5.00
2019-02-11T19:59:36.297Z,3.83
2019-02-11T20:04:43.159Z,2.93
2019-02-11T20:09:48.078Z,2.03
2019-02-11T20:14:53.231Z,5.30
2019-02-11T20:20:00.475Z,4.77
2019-02-11T20:25:05.039Z,4.90
2019-02-11T20:30:13.492Z,6.93
2019-02-11T20:35:19.781Z,2.80
2019-02-11T20:52:01.257Z,6.43
2019-02-11T20:57:06.170Z,3.53
2019-02-11T21:02:11.192Z,5.83
2019-02-11T21:07:16.209Z,2.27
2019-02-11T21:12:21.026Z,8.03
2019-02-11T21:17:26.908Z,2.13
2019-02-11T21:22:33.114Z,4.40
2019-02-11T21:27:37.991Z,2.13
2019-02-11T21:32:42.977Z,3.23
2019-02-11T21:37:48.057Z,4.63
2019-02-11T21:42:53.061Z,12.53
2019-02-11T21:47:59.360Z,5.17
2019-02-11T22:10:17.019Z,5.33
2019-02-11T22:15:22.130Z,3.30
2019-02-11T22:20:34.565Z,4.70
2019-02-11T22:25:38.089Z,3.40
2019-02-11T22:30:43.517Z,3.50
2019-02-11T22:35:48.509Z,2.73
2019-02-11T22:40:56.111Z,3.73
2019-02-11T22:46:00.851Z,3.90
2019-02-11T22:51:13.161Z,5.23
2019-02-11T22:56:18.541Z,6.63
2019-02-11T23:01:24.905Z,11.23
2019-02-11T23:17:57.669Z,5.83
